Time,TemperatureF,DewpointF,PressureIn,WindDirection,WindDirectionDegrees,WindSpeedMPH,WindSpeedGustMPH,Humidity,HourlyPrecipIn,Conditions,Clouds,dailyrainin,SoftwareType,DateUTC
2013-05-16 00:01:00,73.6,68.8,29.78,SW,217,1.6,4.6,85,0.00,CLR,,0.00,WeatherDisplay:10.37,2013-05-16 05:01:00,
2013-05-16 00:06:00,73.5,69.1,29.78,SW,220,1.5,6.0,86,0.00,CLR,,0.00,WeatherDisplay:10.37,2013-05-16 05:06:00,
2013-05-16 00:11:00,73.4,69.0,29.78,South,180,0.4,5.8,86,0.00,CLR,,0.00,WeatherDisplay:10.37,2013-05-16 05:11:00,
2013-05-16 00:16:00,73.4,69.0,29.78,SSW,209,2.6,8.1,86,0.00,CLR,,0.00,WeatherDisplay:10.37,2013-05-16 05:16:00,
2013-05-16 00:21:00,73.4,69.0,29.78,SSE,161,0.5,3.5,86,0.00,CLR,,0.00,WeatherDisplay:10.37,2013-05-16 05:21:00,
2013-05-16 00:26:00,73.4,69.0,29.78,SSE,152,0.7,4.0,86,0.00,CLR,,0.00,WeatherDisplay:10.37,2013-05-16 05:26:00,
2013-05-16 00:31:00,73.3,68.9,29.78,SE,130,0.7,0.0,86,0.00,CLR,,0.00,WeatherDisplay:10.37,2013-05-16 05:31:00,
2013-05-16 00:36:00,73.3,68.9,29.78,South,190,0.0,0.0,86,0.00,CLR,,0.00,WeatherDisplay:10.37,2013-05-16 05:36:00,
2013-05-16 00:41:00,73.3,68.9,29.78,SW,235,1.2,2.3,86,0.00,CLR,,0.00,WeatherDisplay:10.37,2013-05-16 05:41:00,
2013-05-16 00:46:00,73.3,68.9,29.78,SE,143,0.9,1.2,86,0.00,CLR,,0.00,WeatherDisplay:10.37,2013-05-16 05:46:00,
2013-05-16 00:51:00,73.3,68.9,29.79,SE,139,1.4,6.9,86,0.00,CLR,,0.00,WeatherDisplay:10.37,2013-05-16 05:51:00,
2013-05-16 00:56:00,73.3,68.9,29.79,WSW,243,2.5,5.8,86,0.00,CLR,,0.00,WeatherDisplay:10.37,2013-05-16 05:56:00,
2013-05-16 01:01:00,73.3,68.9,29.79,SSW,207,0.0,3.0,86,0.00,CLR,,0.00,WeatherDisplay:10.37,2013-05-16 06:01:00,
2013-05-16 01:06:00,73.4,69.0,29.79,SSW,211,2.8,6.9,86,0.00,CLR,,0.00,WeatherDisplay:10.37,2013-05-16 06:06:00,
2013-05-16 01:11:00,73.3,68.9,29.79,South,182,0.0,0.0,86,0.00,CLR,,0.00,WeatherDisplay:10.37,2013-05-16 06:11:00,
2013-05-16 01:16:00,73.3,68.5,29.78,ENE,71,0.5,2.3,85,0.00,CLR,,0.00,WeatherDisplay:10.37,2013-05-16 06:16:00,
2013-05-16 01:21:00,73.3,68.5,29.78,SW,223,0.0,0.0,85,0.00,CLR,,0.00,WeatherDisplay:10.37,2013-05-16 06:21:00,
2013-05-16 01:26:00,73.3,68.5,29.78,East,89,0.0,2.3,85,0.00,CLR,,0.00,WeatherDisplay:10.37,2013-05-16 06:26:00,
2013-05-16 01:31:00,73.3,68.5,29.79,SSW,192,0.0,4.6,85,0.00,CLR,,0.00,WeatherDisplay:10.37,2013-05-16 06:31:00,
2013-05-16 01:36:00,73.3,68.5,29.79,NE,34,0.0,0.0,85,0.00,CLR,,0.00,WeatherDisplay:10.37,2013-05-16 06:36:00,
2013-05-16 01:41:00,73.2,68.4,29.79,ENE,74,2.5,3.5,85,0.00,CLR,,0.00,WeatherDisplay:10.37,2013-05-16 06:41:00,
2013-05-16 01:46:00,73.1,68.3,29.78,SW,219,0.7,2.3,85,0.00,CLR,,0.00,WeatherDisplay:10.37,2013-05-16 06:46:00,
2013-05-16 01:51:00,73.0,68.2,29.78,WSW,249,0.3,3.5,85,0.00,CLR,,0.00,WeatherDisplay:10.37,2013-05-16 06:51:00,
2013-05-16 01:56:00,72.9,68.1,29.77,SSW,193,0.0,0.0,85,0.00,CLR,,0.00,WeatherDisplay:10.37,2013-05-16 06:56:00,
2013-05-16 02:01:00,72.9,68.1,29.77,SW,224,1.1,3.5,85,0.00,CLR,,0.00,WeatherDisplay:10.37,2013-05-16 07:01:00,
2013-05-16 02:06:00,72.8,68.4,29.77,SSE,159,0.4,4.6,86,0.00,CLR,,0.00,WeatherDisplay:10.37,2013-05-16 07:06:00,
2013-05-16 02:11:00,72.8,68.4,29.77,SW,236,0.8,3.0,86,0.00,CLR,,0.00,WeatherDisplay:10.37,2013-05-16 07:11:00,
2013-05-16 02:16:00,72.7,68.3,29.77,WSW,237,0.0,0.0,86,0.00,CLR,,0.00,WeatherDisplay:10.37,2013-05-16 07:16:00,
2013-05-16 02:21:00,72.6,68.2,29.77,SW,222,0.1,3.5,86,0.00,CLR,,0.00,WeatherDisplay:10.37,2013-05-16 07:21:00,
2013-05-16 02:26:00,72.6,68.2,29.77,East,81,0.9,3.5,86,0.00,CLR,,0.00,WeatherDisplay:10.37,2013-05-16 07:26:00,
2013-05-16 02:31:00,72.5,68.1,29.77,SSE,168,0.2,0.0,86,0.00,CLR,,0.00,WeatherDisplay:10.37,2013-05-16 07:31:00,
2013-05-16 02:36:00,72.5,68.1,29.76,SW,215,1.0,3.5,86,0.00,CLR,,0.00,WeatherDisplay:10.37,2013-05-16 07:36:00,
2013-05-16 02:41:00,72.5,68.1,29.77,East,82,1.0,2.3,86,0.00,CLR,,0.00,WeatherDisplay:10.37,2013-05-16 07:41:00,
2013-05-16 02:46:00,72.4,68.0,29.76,SSW,212,1.9,5.8,86,0.00,CLR,,0.00,WeatherDisplay:10.37,2013-05-16 07:46:00,
2013-05-16 02:51:00,72.4,68.0,29.76,NE,50,0.5,2.3,86,0.00,CLR,,0.00,WeatherDisplay:10.37,2013-05-16 07:51:00,
2013-05-16 02:56:00,72.3,67.9,29.76,SW,221,1.1,4.6,86,0.00,CLR,,0.00,WeatherDisplay:10.37,2013-05-16 07:56:00,
2013-05-16 03:01:00,72.3,67.9,29.76,SSW,200,1.4,2.3,86,0.00,CLR,,0.00,WeatherDisplay:10.37,2013-05-16 08:01:00,
2013-05-16 03:06:00,72.2,67.8,29.76,NE,55,0.4,0.0,86,0.00,CLR,,0.00,WeatherDisplay:10.37,2013-05-16 08:06:00,
2013-05-16 03:11:00,72.2,68.1,29.76,SSE,162,0.0,2.0,87,0.00,CLR,,0.00,WeatherDisplay:10.37,2013-05-16 08:11:00,
2013-05-16 03:16:00,72.1,68.0,29.75,SW,229,1.0,1.2,87,0.00,CLR,,0.00,WeatherDisplay:10.37,2013-05-16 08:16:00,
2013-05-16 03:21:00,72.1,68.0,29.75,South,189,0.5,6.0,87,0.00,CLR,,0.00,WeatherDisplay:10.37,2013-05-16 08:21:00,
2013-05-16 03:26:00,72.1,68.0,29.75,South,190,0.2,1.2,87,0.00,CLR,,0.00,WeatherDisplay:10.37,2013-05-16 08:26:00,
2013-05-16 03:31:00,72.0,67.9,29.75,SW,234,0.1,2.3,87,0.00,CLR,,0.00,WeatherDisplay:10.37,2013-05-16 08:31:00,
2013-05-16 03:36:00,72.0,67.9,29.75,SW,221,0.0,0.0,87,0.00,CLR,,0.00,WeatherDisplay:10.37,2013-05-16 08:36:00,
2013-05-16 03:41:00,72.0,67.9,29.76,SW,215,1.1,3.0,87,0.00,CLR,,0.00,WeatherDisplay:10.37,2013-05-16 08:41:00,
2013-05-16 03:46:00,72.0,67.9,29.75,South,189,1.7,3.5,87,0.00,CLR,,0.00,WeatherDisplay:10.37,2013-05-16 08:46:00,
2013-05-16 03:51:00,71.9,67.8,29.75,West,269,2.0,6.9,87,0.00,CLR,,0.00,WeatherDisplay:10.37,2013-05-16 08:51:00,
2013-05-16 03:56:00,71.9,67.8,29.76,SSW,200,0.8,5.0,87,0.00,CLR,,0.00,WeatherDisplay:10.37,2013-05-16 08:56:00,
2013-05-16 04:01:00,71.9,67.8,29.75,SW,224,0.7,3.5,87,0.00,CLR,,0.00,WeatherDisplay:10.37,2013-05-16 09:01:00,
2013-05-16 04:06:00,71.9,67.8,29.75,SSE,150,0.6,0.0,87,0.00,CLR,,0.00,WeatherDisplay:10.37,2013-05-16 09:06:00,
2013-05-16 04:11:00,71.9,67.8,29.76,SSW,202,0.0,2.3,87,0.00,CLR,,0.00,WeatherDisplay:10.37,2013-05-16 09:11:00,
2013-05-16 04:16:00,71.9,67.8,29.76,SW,234,0.7,3.5,87,0.00,CLR,,0.00,WeatherDisplay:10.37,2013-05-16 09:16:00,
2013-05-16 04:21:00,71.9,67.8,29.76,SSW,211,0.0,0.0,87,0.00,CLR,,0.00,WeatherDisplay:10.37,2013-05-16 09:21:00,
2013-05-16 04:26:00,71.9,67.8,29.77,SSE,165,0.0,0.0,87,0.00,CLR,,0.00,WeatherDisplay:10.37,2013-05-16 09:26:00,
2013-05-16 04:31:00,71.9,67.8,29.77,SSW,205,0.0,0.0,87,0.00,CLR,,0.00,WeatherDisplay:10.37,2013-05-16 09:31:00,
2013-05-16 04:36:00,71.9,67.8,29.78,SSW,212,0.0,1.2,87,0.00,CLR,,0.00,WeatherDisplay:10.37,2013-05-16 09:36:00,
2013-05-16 04:41:00,71.9,67.8,29.78,SSW,212,0.0,0.0,87,0.00,CLR,,0.00,WeatherDisplay:10.37,2013-05-16 09:41:00,
2013-05-16 04:46:00,71.9,67.8,29.78,SSW,212,0.0,0.0,87,0.00,CLR,,0.00,WeatherDisplay:10.37,2013-05-16 09:46:00,
2013-05-16 04:51:00,71.9,67.8,29.78,NNE,30,0.0,0.0,87,0.00,CLR,,0.00,WeatherDisplay:10.37,2013-05-16 09:51:00,
2013-05-16 04:56:00,72.0,67.9,29.77,NNE,30,0.0,0.0,87,0.00,CLR,,0.00,WeatherDisplay:10.37,2013-05-16 09:56:00,
2013-05-16 05:01:00,71.9,67.8,29.78,NE,49,0.0,0.0,87,0.00,CLR,,0.00,WeatherDisplay:10.37,2013-05-16 10:01:00,
2013-05-16 05:06:00,72.0,67.9,29.78,NE,49,0.0,0.0,87,0.00,CLR,,0.00,WeatherDisplay:10.37,2013-05-16 10:06:00,
2013-05-16 05:11:00,71.9,67.8,29.78,West,263,0.0,1.2,87,0.00,CLR,,0.00,WeatherDisplay:10.37,2013-05-16 10:11:00,
2013-05-16 05:16:00,71.9,67.8,29.77,NNE,33,0.0,0.0,87,0.00,CLR,,0.00,WeatherDisplay:10.37,2013-05-16 10:16:00,
2013-05-16 05:21:00,71.9,67.8,29.77,NNE,13,0.0,0.0,87,0.00,CLR,,0.00,WeatherDisplay:10.37,2013-05-16 10:21:00,
2013-05-16 05:26:00,71.9,67.8,29.77,NNE,17,0.0,0.0,87,0.00,CLR,,0.00,WeatherDisplay:10.37,2013-05-16 10:26:00,
2013-05-16 05:31:00,71.9,67.8,29.77,NNE,17,0.0,0.0,87,0.00,CLR,,0.00,WeatherDisplay:10.37,2013-05-16 10:31:00,
2013-05-16 05:36:00,71.9,67.8,29.77,NNE,17,0.0,0.0,87,0.00,CLR,,0.00,WeatherDisplay:10.37,2013-05-16 10:36:00,
2013-05-16 05:41:00,71.9,67.8,29.77,NNE,17,0.0,0.0,87,0.00,CLR,,0.00,WeatherDisplay:10.37,2013-05-16 10:41:00,
2013-05-16 05:46:00,71.9,67.8,29.77,ENE,66,0.0,0.0,87,0.00,CLR,,0.00,WeatherDisplay:10.37,2013-05-16 10:46:00,
2013-05-16 05:51:00,71.8,67.7,29.77,ENE,77,0.0,0.0,87,0.00,CLR,,0.00,WeatherDisplay:10.37,2013-05-16 10:51:00,
2013-05-16 05:56:00,71.8,67.7,29.77,NNE,30,0.0,0.0,87,0.00,CLR,,0.00,WeatherDisplay:10.37,2013-05-16 10:56:00,
2013-05-16 06:01:00,71.8,67.7,29.77,NNE,31,0.0,0.0,87,0.00,CLR,,0.00,WeatherDisplay:10.37,2013-05-16 11:01:00,
2013-05-16 06:06:00,71.8,67.7,29.77,ESE,107,0.4,2.0,87,0.00,CLR,,0.00,WeatherDisplay:10.37,2013-05-16 11:06:00,
2013-05-16 06:11:00,71.8,67.7,29.77,NE,48,0.3,3.5,87,0.00,CLR,,0.00,WeatherDisplay:10.37,2013-05-16 11:11:00,
2013-05-16 06:16:00,71.8,67.7,29.77,NE,38,0.0,0.0,87,0.00,CLR,,0.00,WeatherDisplay:10.37,2013-05-16 11:16:00,
2013-05-16 06:21:00,71.7,67.6,29.77,NE,41,0.0,1.2,87,0.00,CLR,,0.00,WeatherDisplay:10.37,2013-05-16 11:21:00,
2013-05-16 06:26:00,71.7,67.3,29.77,NNE,32,0.0,0.0,86,0.00,CLR,,0.00,WeatherDisplay:10.37,2013-05-16 11:26:00,
2013-05-16 06:31:00,71.7,67.3,29.77,NNE,31,0.0,0.0,86,0.00,CLR,,0.00,WeatherDisplay:10.37,2013-05-16 11:31:00,
2013-05-16 06:36:00,71.6,67.2,29.77,NE,50,0.0,0.0,86,0.00,CLR,,0.00,WeatherDisplay:10.37,2013-05-16 11:36:00,
2013-05-16 06:41:00,71.6,67.2,29.77,East,83,0.0,0.0,86,0.00,CLR,,0.00,WeatherDisplay:10.37,2013-05-16 11:41:00,
2013-05-16 06:46:00,71.6,67.2,29.77,WSW,256,0.8,1.0,86,0.00,CLR,,0.00,WeatherDisplay:10.37,2013-05-16 11:46:00,
2013-05-16 06:51:00,71.6,67.2,29.77,WSW,256,0.0,0.0,86,0.00,CLR,,0.00,WeatherDisplay:10.37,2013-05-16 11:51:00,
2013-05-16 06:56:00,71.5,67.1,29.78,NE,36,0.7,1.2,86,0.00,CLR,,0.00,WeatherDisplay:10.37,2013-05-16 11:56:00,
2013-05-16 07:01:00,71.5,67.1,29.77,NE,38,0.0,0.0,86,0.00,CLR,,0.00,WeatherDisplay:10.37,2013-05-16 12:01:00,
2013-05-16 07:06:00,71.5,67.1,29.77,NE,38,0.9,1.2,86,0.00,CLR,,0.00,WeatherDisplay:10.37,2013-05-16 12:06:00,
2013-05-16 07:11:00,71.5,67.1,29.77,NE,38,0.0,0.0,86,0.00,CLR,,0.00,WeatherDisplay:10.37,2013-05-16 12:11:00,
2013-05-16 07:16:00,71.5,67.1,29.77,West,269,0.0,0.0,86,0.00,CLR,,0.00,WeatherDisplay:10.37,2013-05-16 12:16:00,
2013-05-16 07:21:00,71.5,67.1,29.77,NE,37,0.0,0.0,86,0.00,CLR,,0.00,WeatherDisplay:10.37,2013-05-16 12:21:00,
2013-05-16 07:26:00,71.5,67.1,29.77,ENE,63,0.1,1.2,86,0.00,CLR,,0.00,WeatherDisplay:10.37,2013-05-16 12:26:00,
2013-05-16 07:31:00,71.5,67.1,29.77,ENE,59,1.4,3.5,86,0.00,CLR,,0.00,WeatherDisplay:10.37,2013-05-16 12:31:00,
2013-05-16 07:36:00,71.5,67.1,29.77,ENE,61,0.0,0.0,86,0.00,CLR,,0.00,WeatherDisplay:10.37,2013-05-16 12:36:00,
2013-05-16 07:41:00,71.5,67.1,29.77,ENE,62,0.5,5.8,86,0.00,CLR,,0.00,WeatherDisplay:10.37,2013-05-16 12:41:00,
2013-05-16 07:46:00,71.5,67.1,29.77,NNE,33,0.0,0.0,86,0.00,CLR,,0.00,WeatherDisplay:10.37,2013-05-16 12:46:00,
2013-05-16 07:51:00,71.5,67.1,29.77,NNE,32,1.3,2.3,86,0.00,CLR,,0.00,WeatherDisplay:10.37,2013-05-16 12:51:00,
2013-05-16 07:56:00,71.5,67.1,29.77,North,350,0.0,0.0,86,0.00,CLR,,0.00,WeatherDisplay:10.37,2013-05-16 12:56:00,
2013-05-16 08:01:00,71.6,67.2,29.78,North,5,0.0,1.0,86,0.00,CLR,,0.00,WeatherDisplay:10.37,2013-05-16 13:01:00,
2013-05-16 08:06:00,71.6,67.2,29.78,South,180,0.0,0.0,86,0.00,CLR,,0.00,WeatherDisplay:10.37,2013-05-16 13:06:00,
2013-05-16 08:11:00,71.5,67.1,29.78,SSW,201,0.3,1.2,86,0.00,CLR,,0.00,WeatherDisplay:10.37,2013-05-16 13:11:00,
2013-05-16 08:16:00,71.5,67.1,29.78,North,9,0.0,0.0,86,0.00,CLR,,0.00,WeatherDisplay:10.37,2013-05-16 13:16:00,
2013-05-16 08:21:00,71.6,67.2,29.77,NE,38,0.0,1.2,86,0.00,CLR,,0.00,WeatherDisplay:10.37,2013-05-16 13:21:00,
2013-05-16 08:26:00,71.6,67.2,29.78,NE,34,0.4,2.0,86,0.00,CLR,,0.00,WeatherDisplay:10.37,2013-05-16 13:26:00,
2013-05-16 08:31:00,71.6,67.2,29.78,NNE,24,0.0,0.0,86,0.00,CLR,,0.00,WeatherDisplay:10.37,2013-05-16 13:31:00,
2013-05-16 08:36:00,71.6,67.2,29.78,North,355,0.0,0.0,86,0.00,CLR,,0.00,WeatherDisplay:10.37,2013-05-16 13:36:00,
2013-05-16 08:41:00,71.7,67.3,29.78,SSW,211,0.7,1.2,86,0.00,CLR,,0.00,WeatherDisplay:10.37,2013-05-16 13:41:00,
2013-05-16 08:46:00,71.7,67.3,29.78,NE,55,0.2,1.2,86,0.00,CLR,,0.00,WeatherDisplay:10.37,2013-05-16 13:46:00,
2013-05-16 08:51:00,71.7,67.3,29.78,NE,54,0.0,0.0,86,0.00,CLR,,0.00,WeatherDisplay:10.37,2013-05-16 13:51:00,
2013-05-16 08:56:00,71.7,67.3,29.78,ESE,103,0.1,1.2,86,0.00,CLR,,0.00,WeatherDisplay:10.37,2013-05-16 13:56:00,
2013-05-16 09:01:00,71.8,67.4,29.78,SE,136,0.0,0.0,86,0.00,CLR,,0.00,WeatherDisplay:10.37,2013-05-16 14:01:00,
2013-05-16 09:06:00,71.8,67.4,29.77,NNW,342,0.0,0.0,86,0.00,CLR,,0.00,WeatherDisplay:10.37,2013-05-16 14:06:00,
2013-05-16 09:11:00,71.8,67.4,29.77,SW,236,0.7,2.0,86,0.00,CLR,,0.00,WeatherDisplay:10.37,2013-05-16 14:11:00,
2013-05-16 09:16:00,71.9,67.5,29.78,SSE,150,0.0,0.0,86,0.00,CLR,,0.00,WeatherDisplay:10.37,2013-05-16 14:16:00,
2013-05-16 09:21:00,71.9,67.5,29.77,NNW,340,0.0,1.2,86,0.00,CLR,,0.00,WeatherDisplay:10.37,2013-05-16 14:21:00,
2013-05-16 09:26:00,72.1,67.7,29.77,SW,223,0.5,1.2,86,0.00,CLR,,0.00,WeatherDisplay:10.37,2013-05-16 14:26:00,
2013-05-16 09:31:00,72.1,67.3,29.77,SW,224,1.0,1.2,85,0.00,CLR,,0.00,WeatherDisplay:10.37,2013-05-16 14:31:00,
2013-05-16 09:36:00,72.2,67.4,29.78,SSW,192,0.0,1.2,85,0.00,CLR,,0.00,WeatherDisplay:10.37,2013-05-16 14:36:00,
2013-05-16 09:41:00,72.3,67.5,29.77,WNW,293,0.0,0.0,85,0.00,CLR,,0.00,WeatherDisplay:10.37,2013-05-16 14:41:00,
2013-05-16 09:46:00,72.4,67.6,29.77,SW,227,0.2,1.2,85,0.00,CLR,,0.00,WeatherDisplay:10.37,2013-05-16 14:46:00,
2013-05-16 09:51:00,72.6,67.8,29.78,WSW,244,0.0,4.6,85,0.00,CLR,,0.00,WeatherDisplay:10.37,2013-05-16 14:51:00,
2013-05-16 09:56:00,72.7,67.9,29.78,WNW,303,0.0,0.0,85,0.00,CLR,,0.00,WeatherDisplay:10.37,2013-05-16 14:56:00,
2013-05-16 10:01:00,72.8,68.0,29.78,SSW,197,0.0,0.0,85,0.00,CLR,,0.00,WeatherDisplay:10.37,2013-05-16 15:01:00,
2013-05-16 10:06:00,72.9,67.8,29.78,West,272,0.1,2.0,84,0.00,CLR,,0.00,WeatherDisplay:10.37,2013-05-16 15:06:00,
2013-05-16 10:11:00,73.0,67.9,29.78,WSW,250,0.0,3.5,84,0.00,CLR,,0.00,WeatherDisplay:10.37,2013-05-16 15:11:00,
2013-05-16 10:16:00,73.1,68.0,29.77,SSW,199,4.1,5.8,84,0.00,CLR,,0.00,WeatherDisplay:10.37,2013-05-16 15:16:00,
2013-05-16 10:21:00,73.3,68.2,29.77,North,355,0.0,0.0,84,0.00,CLR,,0.00,WeatherDisplay:10.37,2013-05-16 15:21:00,
2013-05-16 10:26:00,73.4,68.3,29.78,West,269,0.8,1.2,84,0.00,CLR,,0.00,WeatherDisplay:10.37,2013-05-16 15:26:00,
2013-05-16 10:31:00,73.6,68.1,29.77,SSE,157,0.6,1.2,83,0.00,CLR,,0.00,WeatherDisplay:10.37,2013-05-16 15:31:00,
2013-05-16 10:36:00,73.7,68.2,29.77,SW,227,0.0,0.0,83,0.00,CLR,,0.00,WeatherDisplay:10.37,2013-05-16 15:36:00,
2013-05-16 10:41:00,73.9,68.4,29.77,SSW,212,0.9,4.6,83,0.00,CLR,,0.00,WeatherDisplay:10.37,2013-05-16 15:41:00,
2013-05-16 10:46:00,74.0,68.5,29.77,SW,227,1.5,2.3,83,0.00,CLR,,0.00,WeatherDisplay:10.37,2013-05-16 15:46:00,
2013-05-16 10:51:00,74.2,68.7,29.77,WSW,246,0.0,1.2,83,0.00,CLR,,0.00,WeatherDisplay:10.37,2013-05-16 15:51:00,
2013-05-16 10:56:00,74.5,68.6,29.77,South,180,0.0,0.0,82,0.00,CLR,,0.00,WeatherDisplay:10.37,2013-05-16 15:56:00,
2013-05-16 11:01:00,74.7,68.8,29.77,WSW,252,1.4,3.5,82,0.00,CLR,,0.00,WeatherDisplay:10.37,2013-05-16 16:01:00,
2013-05-16 11:06:00,75.0,69.1,29.77,SW,219,0.3,2.3,82,0.00,CLR,,0.00,WeatherDisplay:10.37,2013-05-16 16:06:00,
2013-05-16 11:11:00,75.3,69.1,29.77,SW,227,0.0,1.2,81,0.00,CLR,,0.00,WeatherDisplay:10.37,2013-05-16 16:11:00,
2013-05-16 11:16:00,75.8,69.2,29.77,SSW,200,0.1,4.6,80,0.00,CLR,,0.00,WeatherDisplay:10.37,2013-05-16 16:16:00,
2013-05-16 11:21:00,76.1,69.5,29.76,WSW,242,0.1,2.3,80,0.00,CLR,,0.00,WeatherDisplay:10.37,2013-05-16 16:21:00,
2013-05-16 11:26:00,76.6,69.6,29.76,SSW,200,0.9,2.3,79,0.00,CLR,,0.00,WeatherDisplay:10.37,2013-05-16 16:26:00,
2013-05-16 11:31:00,77.1,70.1,29.76,NNE,27,1.0,1.2,79,0.00,CLR,,0.00,WeatherDisplay:10.37,2013-05-16 16:31:00,
2013-05-16 11:36:00,77.4,69.6,29.76,SW,215,2.9,5.8,77,0.00,CLR,,0.00,WeatherDisplay:10.37,2013-05-16 16:36:00,
2013-05-16 11:41:00,77.8,70.4,29.76,WSW,241,0.0,0.0,78,0.00,CLR,,0.00,WeatherDisplay:10.37,2013-05-16 16:41:00,
2013-05-16 11:46:00,78.3,70.5,29.76,WSW,247,1.5,3.5,77,0.00,CLR,,0.00,WeatherDisplay:10.37,2013-05-16 16:46:00,
2013-05-16 11:51:00,79.1,70.5,29.76,SSE,157,2.3,5.0,75,0.00,CLR,,0.00,WeatherDisplay:10.37,2013-05-16 16:51:00,
2013-05-16 11:56:00,80.1,71.1,29.75,SW,232,0.6,2.3,74,0.00,CLR,,0.00,WeatherDisplay:10.37,2013-05-16 16:56:00,
2013-05-16 12:01:00,81.0,71.1,29.75,SSE,165,1.8,4.0,72,0.00,CLR,,0.00,WeatherDisplay:10.37,2013-05-16 17:01:00,
2013-05-16 12:06:00,81.8,71.1,29.75,SW,234,2.5,6.9,70,0.00,CLR,,0.00,WeatherDisplay:10.37,2013-05-16 17:06:00,
2013-05-16 12:11:00,82.6,71.8,29.75,SW,219,1.3,3.5,70,0.00,CLR,,0.00,WeatherDisplay:10.37,2013-05-16 17:11:00,
2013-05-16 12:16:00,83.8,72.1,29.74,South,190,1.7,3.5,68,0.00,CLR,,0.00,WeatherDisplay:10.37,2013-05-16 17:16:00,
2013-05-16 12:21:00,84.6,72.4,29.75,NE,47,0.0,2.3,67,0.00,CLR,,0.00,WeatherDisplay:10.37,2013-05-16 17:21:00,
2013-05-16 12:26:00,85.2,71.6,29.74,West,271,1.2,2.3,64,0.00,CLR,,0.00,WeatherDisplay:10.37,2013-05-16 17:26:00,
2013-05-16 12:31:00,86.4,72.3,29.74,WSW,240,1.6,3.5,63,0.00,CLR,,0.00,WeatherDisplay:10.37,2013-05-16 17:31:00,
2013-05-16 12:36:00,87.1,72.0,29.74,SSW,206,3.8,3.8,61,0.00,CLR,,0.00,WeatherDisplay:10.37,2013-05-16 17:36:00,
2013-05-16 12:41:00,87.1,72.0,29.74,South,175,0.0,2.3,61,0.00,CLR,,0.00,WeatherDisplay:10.37,2013-05-16 17:41:00,
2013-05-16 12:46:00,87.4,71.8,29.74,SSW,194,1.5,3.5,60,0.00,CLR,,0.00,WeatherDisplay:10.37,2013-05-16 17:46:00,
2013-05-16 12:51:00,87.8,72.2,29.74,SSE,164,1.2,4.0,60,0.00,CLR,,0.00,WeatherDisplay:10.37,2013-05-16 17:51:00,
2013-05-16 12:56:00,87.9,71.8,29.73,WNW,294,1.1,3.5,59,0.00,CLR,,0.00,WeatherDisplay:10.37,2013-05-16 17:56:00,
2013-05-16 13:01:00,88.3,71.6,29.73,South,173,1.9,6.9,58,0.00,CLR,,0.00,WeatherDisplay:10.37,2013-05-16 18:01:00,
2013-05-16 13:06:00,89.0,72.3,29.73,South,174,1.9,5.8,58,0.00,CLR,,0.00,WeatherDisplay:10.37,2013-05-16 18:06:00,
2013-05-16 13:11:00,89.5,72.8,29.73,WSW,254,1.8,4.6,58,0.00,CLR,,0.00,WeatherDisplay:10.37,2013-05-16 18:11:00,
2013-05-16 13:16:00,89.9,72.6,29.72,SSE,161,1.0,1.2,57,0.00,CLR,,0.00,WeatherDisplay:10.37,2013-05-16 18:16:00,
2013-05-16 13:21:00,90.0,72.2,29.72,SSE,148,1.2,2.3,56,0.00,CLR,,0.00,WeatherDisplay:10.37,2013-05-16 18:21:00,
2013-05-16 13:26:00,89.8,72.5,29.72,NW,319,0.2,2.3,57,0.00,CLR,,0.00,WeatherDisplay:10.37,2013-05-16 18:26:00,
2013-05-16 13:31:00,90.2,72.4,29.71,SSE,159,2.4,4.6,56,0.00,CLR,,0.00,WeatherDisplay:10.37,2013-05-16 18:31:00,
2013-05-16 13:36:00,90.6,72.2,29.71,SSE,159,3.1,3.5,55,0.00,CLR,,0.00,WeatherDisplay:10.37,2013-05-16 18:36:00,
2013-05-16 13:41:00,90.9,72.5,29.71,SW,218,0.5,2.0,55,0.00,CLR,,0.00,WeatherDisplay:10.37,2013-05-16 18:41:00,
2013-05-16 13:46:00,90.8,71.9,29.71,ENE,68,1.2,2.3,54,0.00,CLR,,0.00,WeatherDisplay:10.37,2013-05-16 18:46:00,
2013-05-16 13:51:00,90.7,72.3,29.71,WSW,245,2.3,4.6,55,0.00,CLR,,0.00,WeatherDisplay:10.37,2013-05-16 18:51:00,
2013-05-16 13:56:00,91.1,72.7,29.71,SSW,213,2.6,3.5,55,0.00,CLR,,0.00,WeatherDisplay:10.37,2013-05-16 18:56:00,
2013-05-16 14:01:00,91.3,72.3,29.71,WSW,239,0.9,2.3,54,0.00,CLR,,0.00,WeatherDisplay:10.37,2013-05-16 19:01:00,
2013-05-16 14:06:00,92.2,72.6,29.71,SSE,150,2.8,4.0,53,0.00,CLR,,0.00,WeatherDisplay:10.37,2013-05-16 19:06:00,
2013-05-16 14:11:00,92.2,72.0,29.71,West,271,0.5,1.2,52,0.00,CLR,,0.00,WeatherDisplay:10.37,2013-05-16 19:11:00,
2013-05-16 14:16:00,92.1,72.5,29.71,SSW,194,1.7,2.3,53,0.00,CLR,,0.00,WeatherDisplay:10.37,2013-05-16 19:16:00,
2013-05-16 14:21:00,92.3,72.7,29.70,South,190,0.8,3.5,53,0.00,CLR,,0.00,WeatherDisplay:10.37,2013-05-16 19:21:00,
2013-05-16 14:26:00,93.1,72.9,29.70,WNW,287,1.3,3.0,52,0.00,CLR,,0.00,WeatherDisplay:10.37,2013-05-16 19:26:00,
2013-05-16 14:31:00,93.8,73.5,29.70,SW,225,1.6,4.6,52,0.00,CLR,,0.00,WeatherDisplay:10.37,2013-05-16 19:31:00,
2013-05-16 14:36:00,94.0,72.5,29.70,South,170,1.4,2.3,50,0.00,CLR,,0.00,WeatherDisplay:10.37,2013-05-16 19:36:00,
2013-05-16 14:41:00,94.7,73.2,29.70,South,184,1.2,3.5,50,0.00,CLR,,0.00,WeatherDisplay:10.37,2013-05-16 19:41:00,
2013-05-16 14:46:00,95.1,72.3,29.70,WNW,297,1.7,3.5,48,0.00,CLR,,0.00,WeatherDisplay:10.37,2013-05-16 19:46:00,
2013-05-16 14:51:00,95.2,72.4,29.70,South,186,1.2,5.8,48,0.00,CLR,,0.00,WeatherDisplay:10.37,2013-05-16 19:51:00,
2013-05-16 14:56:00,95.0,72.2,29.69,WSW,257,0.5,3.5,48,0.00,CLR,,0.00,WeatherDisplay:10.37,2013-05-16 19:56:00,
2013-05-16 15:01:00,95.1,72.3,29.69,WNW,295,1.5,3.5,48,0.00,CLR,,0.00,WeatherDisplay:10.37,2013-05-16 20:01:00,
2013-05-16 15:06:00,95.3,71.9,29.69,SSW,205,3.8,3.8,47,0.00,CLR,,0.00,WeatherDisplay:10.37,2013-05-16 20:06:00,
2013-05-16 15:11:00,95.5,72.1,29.69,SSW,211,0.6,1.2,47,0.00,CLR,,0.00,WeatherDisplay:10.37,2013-05-16 20:11:00,
2013-05-16 15:16:00,95.1,72.3,29.68,East,86,0.7,1.2,48,0.00,CLR,,0.00,WeatherDisplay:10.37,2013-05-16 20:16:00,
2013-05-16 15:21:00,95.1,72.9,29.68,WNW,290,0.5,3.5,49,0.00,CLR,,0.00,WeatherDisplay:10.37,2013-05-16 20:21:00,
2013-05-16 15:26:00,96.0,71.9,29.68,WNW,302,0.7,2.3,46,0.00,CLR,,0.00,WeatherDisplay:10.37,2013-05-16 20:26:00,
2013-05-16 15:31:00,96.8,73.2,29.68,SW,219,0.6,3.5,47,0.00,CLR,,0.00,WeatherDisplay:10.37,2013-05-16 20:31:00,
2013-05-16 15:36:00,96.6,72.4,29.68,WSW,250,2.2,3.5,46,0.00,CLR,,0.00,WeatherDisplay:10.37,2013-05-16 20:36:00,
2013-05-16 15:41:00,96.5,72.3,29.68,SSW,213,0.2,2.3,46,0.00,CLR,,0.00,WeatherDisplay:10.37,2013-05-16 20:41:00,
2013-05-16 15:46:00,96.7,72.5,29.67,SW,217,1.9,0.0,46,0.00,CLR,,0.00,WeatherDisplay:10.37,2013-05-16 20:46:00,
2013-05-16 15:51:00,97.0,72.8,29.67,SSW,207,1.6,2.3,46,0.00,CLR,,0.00,WeatherDisplay:10.37,2013-05-16 20:51:00,
2013-05-16 15:56:00,97.1,72.2,29.67,SW,226,3.8,3.8,45,0.00,CLR,,0.00,WeatherDisplay:10.37,2013-05-16 20:56:00,
2013-05-16 16:01:00,96.8,72.0,29.67,SW,229,0.5,2.3,45,0.00,CLR,,0.00,WeatherDisplay:10.37,2013-05-16 21:01:00,
2013-05-16 16:06:00,97.0,72.8,29.67,NW,321,1.0,2.3,46,0.00,CLR,,0.00,WeatherDisplay:10.37,2013-05-16 21:06:00,
2013-05-16 16:11:00,96.5,72.3,29.66,South,178,1.9,3.5,46,0.00,CLR,,0.00,WeatherDisplay:10.37,2013-05-16 21:11:00,
2013-05-16 16:16:00,96.4,71.6,29.66,South,191,0.2,3.5,45,0.00,CLR,,0.00,WeatherDisplay:10.37,2013-05-16 21:16:00,
2013-05-16 16:21:00,96.6,71.8,29.66,SSW,200,2.4,4.6,45,0.00,CLR,,0.00,WeatherDisplay:10.37,2013-05-16 21:21:00,
2013-05-16 16:26:00,96.6,71.8,29.66,SW,219,0.5,3.5,45,0.00,CLR,,0.00,WeatherDisplay:10.37,2013-05-16 21:26:00,
2013-05-16 16:31:00,97.1,71.6,29.66,SSW,196,0.7,4.6,44,0.00,CLR,,0.00,WeatherDisplay:10.37,2013-05-16 21:31:00,
2013-05-16 16:36:00,97.6,72.0,29.65,SW,217,0.0,4.0,44,0.00,CLR,,0.00,WeatherDisplay:10.37,2013-05-16 21:36:00,
2013-05-16 16:41:00,97.6,72.7,29.65,WSW,250,0.3,1.2,45,0.00,CLR,,0.00,WeatherDisplay:10.37,2013-05-16 21:41:00,
2013-05-16 16:46:00,97.9,72.3,29.65,SW,236,0.7,3.0,44,0.00,CLR,,0.00,WeatherDisplay:10.37,2013-05-16 21:46:00,
2013-05-16 16:51:00,98.0,71.0,29.65,SW,229,0.5,0.0,42,0.00,CLR,,0.00,WeatherDisplay:10.37,2013-05-16 21:51:00,
2013-05-16 16:56:00,97.9,70.9,29.65,SSW,201,1.2,6.9,42,0.00,CLR,,0.00,WeatherDisplay:10.37,2013-05-16 21:56:00,
2013-05-16 17:01:00,97.8,71.5,29.65,SSW,211,0.7,2.0,43,0.00,CLR,,0.00,WeatherDisplay:10.37,2013-05-16 22:01:00,
2013-05-16 17:06:00,97.7,72.1,29.64,SSW,193,0.1,1.0,44,0.00,CLR,,0.00,WeatherDisplay:10.37,2013-05-16 22:06:00,
2013-05-16 17:11:00,98.0,71.7,29.64,South,186,2.3,5.8,43,0.00,CLR,,0.00,WeatherDisplay:10.37,2013-05-16 22:11:00,
2013-05-16 17:16:00,97.8,70.8,29.64,SE,134,0.2,2.3,42,0.00,CLR,,0.00,WeatherDisplay:10.37,2013-05-16 22:16:00,
2013-05-16 17:21:00,97.7,71.4,29.64,NW,317,0.2,1.2,43,0.00,CLR,,0.00,WeatherDisplay:10.37,2013-05-16 22:21:00,
2013-05-16 17:26:00,97.6,71.3,29.64,WSW,250,1.9,3.5,43,0.00,CLR,,0.00,WeatherDisplay:10.37,2013-05-16 22:26:00,
2013-05-16 17:31:00,97.6,71.3,29.63,South,176,0.0,0.0,43,0.00,CLR,,0.00,WeatherDisplay:10.37,2013-05-16 22:31:00,
2013-05-16 17:36:00,97.8,72.2,29.63,SSW,192,0.0,0.0,44,0.00,CLR,,0.00,WeatherDisplay:10.37,2013-05-16 22:36:00,
2013-05-16 17:41:00,97.4,71.8,29.63,SSW,205,1.1,2.3,44,0.00,CLR,,0.00,WeatherDisplay:10.37,2013-05-16 22:41:00,
2013-05-16 17:46:00,97.3,71.1,29.63,SW,234,0.0,1.0,43,0.00,CLR,,0.00,WeatherDisplay:10.37,2013-05-16 22:46:00,
2013-05-16 17:51:00,97.1,70.9,29.63,ENE,61,0.0,0.0,43,0.00,CLR,,0.00,WeatherDisplay:10.37,2013-05-16 22:51:00,
2013-05-16 17:56:00,96.9,71.4,29.63,East,98,0.5,1.2,44,0.00,CLR,,0.00,WeatherDisplay:10.37,2013-05-16 22:56:00,
2013-05-16 18:01:00,96.7,71.9,29.63,WSW,258,0.3,0.0,45,0.00,CLR,,0.00,WeatherDisplay:10.37,2013-05-16 23:01:00,
2013-05-16 18:06:00,96.3,70.8,29.63,SE,132,0.4,1.2,44,0.00,CLR,,0.00,WeatherDisplay:10.37,2013-05-16 23:06:00,
2013-05-16 18:11:00,95.8,71.1,29.63,WSW,243,1.4,4.0,45,0.00,CLR,,0.00,WeatherDisplay:10.37,2013-05-16 23:11:00,
2013-05-16 18:16:00,95.5,71.4,29.63,NE,36,0.0,3.5,46,0.00,CLR,,0.00,WeatherDisplay:10.37,2013-05-16 23:16:00,
2013-05-16 18:21:00,95.1,71.7,29.63,SSE,148,0.0,1.2,47,0.00,CLR,,0.00,WeatherDisplay:10.37,2013-05-16 23:21:00,
2013-05-16 18:26:00,94.7,72.0,29.63,SSE,148,0.0,0.0,48,0.00,CLR,,0.00,WeatherDisplay:10.37,2013-05-16 23:26:00,
2013-05-16 18:31:00,94.5,71.2,29.62,SE,146,0.0,0.0,47,0.00,CLR,,0.00,WeatherDisplay:10.37,2013-05-16 23:31:00,
2013-05-16 18:36:00,94.3,71.6,29.63,East,82,0.0,0.0,48,0.00,CLR,,0.00,WeatherDisplay:10.37,2013-05-16 23:36:00,
2013-05-16 18:41:00,94.3,72.2,29.63,SW,219,0.1,2.3,49,0.00,CLR,,0.00,WeatherDisplay:10.37,2013-05-16 23:41:00,
2013-05-16 18:46:00,94.0,71.9,29.63,NW,315,0.4,3.5,49,0.00,CLR,,0.00,WeatherDisplay:10.37,2013-05-16 23:46:00,
2013-05-16 18:51:00,93.5,73.8,29.63,SW,217,0.8,5.8,53,0.00,CLR,,0.00,WeatherDisplay:10.37,2013-05-16 23:51:00,
2013-05-16 18:56:00,92.8,74.3,29.63,East,95,0.1,2.3,55,0.00,CLR,,0.00,WeatherDisplay:10.37,2013-05-16 23:56:00,
2013-05-16 19:01:00,91.9,74.0,29.63,South,173,0.4,2.0,56,0.00,CLR,,0.00,WeatherDisplay:10.37,2013-05-17 00:01:00,
2013-05-16 19:06:00,91.3,73.9,29.63,NE,52,0.6,2.3,57,0.00,CLR,,0.00,WeatherDisplay:10.37,2013-05-17 00:06:00,
2013-05-16 19:11:00,90.6,74.3,29.63,SSE,167,0.5,2.0,59,0.00,CLR,,0.00,WeatherDisplay:10.37,2013-05-17 00:11:00,
2013-05-16 19:16:00,90.1,74.3,29.64,North,5,0.1,5.8,60,0.00,CLR,,0.00,WeatherDisplay:10.37,2013-05-17 00:16:00,
2013-05-16 19:21:00,89.7,74.5,29.64,NNE,17,0.3,0.0,61,0.00,CLR,,0.00,WeatherDisplay:10.37,2013-05-17 00:21:00,
2013-05-16 19:26:00,89.2,74.5,29.64,ENE,57,0.1,2.3,62,0.00,CLR,,0.00,WeatherDisplay:10.37,2013-05-17 00:26:00,
2013-05-16 19:31:00,88.9,74.2,29.64,North,349,0.1,0.0,62,0.00,CLR,,0.00,WeatherDisplay:10.37,2013-05-17 00:31:00,
2013-05-16 19:36:00,88.4,73.7,29.64,NNE,22,0.1,1.2,62,0.00,CLR,,0.00,WeatherDisplay:10.37,2013-05-17 00:36:00,
2013-05-16 19:41:00,88.0,73.8,29.64,North,360,0.0,0.0,63,0.00,CLR,,0.00,WeatherDisplay:10.37,2013-05-17 00:41:00,
2013-05-16 19:46:00,87.8,74.1,29.65,ENE,66,0.0,0.0,64,0.00,CLR,,0.00,WeatherDisplay:10.37,2013-05-17 00:46:00,
2013-05-16 19:51:00,87.3,74.1,29.65,WSW,247,0.0,2.3,65,0.00,CLR,,0.00,WeatherDisplay:10.37,2013-05-17 00:51:00,
2013-05-16 19:56:00,86.9,73.7,29.65,ESE,123,0.0,2.0,65,0.00,CLR,,0.00,WeatherDisplay:10.37,2013-05-17 00:56:00,
2013-05-16 20:01:00,86.5,73.8,29.65,North,355,0.0,0.0,66,0.00,CLR,,0.00,WeatherDisplay:10.37,2013-05-17 01:01:00,
2013-05-16 20:06:00,86.1,73.9,29.65,NW,319,0.0,0.0,67,0.00,CLR,,0.00,WeatherDisplay:10.37,2013-05-17 01:06:00,
2013-05-16 20:11:00,85.8,73.6,29.66,North,9,0.0,0.0,67,0.00,CLR,,0.00,WeatherDisplay:10.37,2013-05-17 01:11:00,
2013-05-16 20:16:00,85.5,73.7,29.66,ENE,74,0.8,1.2,68,0.00,CLR,,0.00,WeatherDisplay:10.37,2013-05-17 01:16:00,
2013-05-16 20:21:00,85.1,73.8,29.66,North,355,0.0,0.0,69,0.00,CLR,,0.00,WeatherDisplay:10.37,2013-05-17 01:21:00,
2013-05-16 20:26:00,84.8,73.5,29.66,ENE,68,0.0,0.0,69,0.00,CLR,,0.00,WeatherDisplay:10.37,2013-05-17 01:26:00,
2013-05-16 20:31:00,84.3,73.9,29.67,NE,51,0.0,0.0,71,0.00,CLR,,0.00,WeatherDisplay:10.37,2013-05-17 01:31:00,
2013-05-16 20:36:00,83.9,73.5,29.67,NNE,26,0.7,1.0,71,0.00,CLR,,0.00,WeatherDisplay:10.37,2013-05-17 01:36:00,
2013-05-16 20:41:00,83.4,73.4,29.67,South,188,0.2,1.2,72,0.00,CLR,,0.00,WeatherDisplay:10.37,2013-05-17 01:41:00,
2013-05-16 20:46:00,83.0,73.4,29.68,East,92,0.8,3.5,73,0.00,CLR,,0.00,WeatherDisplay:10.37,2013-05-17 01:46:00,
2013-05-16 20:51:00,82.6,73.5,29.68,NE,42,0.1,3.5,74,0.00,CLR,,0.00,WeatherDisplay:10.37,2013-05-17 01:51:00,
2013-05-16 20:56:00,82.2,73.1,29.68,ESE,107,1.1,5.0,74,0.00,CLR,,0.00,WeatherDisplay:10.37,2013-05-17 01:56:00,
2013-05-16 21:01:00,81.9,73.2,29.68,NE,38,0.1,1.2,75,0.00,CLR,,0.00,WeatherDisplay:10.37,2013-05-17 02:01:00,
2013-05-16 21:06:00,81.7,73.0,29.69,NNW,333,0.0,0.0,75,0.00,CLR,,0.00,WeatherDisplay:10.37,2013-05-17 02:06:00,
2013-05-16 21:11:00,81.4,73.1,29.69,NE,53,1.5,3.5,76,0.00,CLR,,0.00,WeatherDisplay:10.37,2013-05-17 02:11:00,
2013-05-16 21:16:00,81.1,72.8,29.69,SSW,201,0.0,0.0,76,0.00,CLR,,0.00,WeatherDisplay:10.37,2013-05-17 02:16:00,
2013-05-16 21:21:00,80.9,73.0,29.69,East,86,0.3,1.2,77,0.00,CLR,,0.00,WeatherDisplay:10.37,2013-05-17 02:21:00,
2013-05-16 21:26:00,80.6,72.7,29.69,NNE,29,0.0,0.0,77,0.00,CLR,,0.00,WeatherDisplay:10.37,2013-05-17 02:26:00,
2013-05-16 21:31:00,80.4,72.9,29.69,NNE,26,0.0,1.2,78,0.00,CLR,,0.00,WeatherDisplay:10.37,2013-05-17 02:31:00,
2013-05-16 21:36:00,80.2,72.7,29.69,NNE,26,0.0,0.0,78,0.00,CLR,,0.00,WeatherDisplay:10.37,2013-05-17 02:36:00,
2013-05-16 21:41:00,79.9,72.8,29.69,ENE,60,0.0,4.0,79,0.00,CLR,,0.00,WeatherDisplay:10.37,2013-05-17 02:41:00,
2013-05-16 21:46:00,79.6,72.5,29.70,ESE,115,0.0,0.0,79,0.00,CLR,,0.00,WeatherDisplay:10.37,2013-05-17 02:46:00,
2013-05-16 21:51:00,79.4,72.7,29.70,NE,34,0.0,1.2,80,0.00,CLR,,0.00,WeatherDisplay:10.37,2013-05-17 02:51:00,
2013-05-16 21:56:00,79.3,72.6,29.70,NE,34,0.0,0.0,80,0.00,CLR,,0.00,WeatherDisplay:10.37,2013-05-17 02:56:00,
2013-05-16 22:01:00,79.1,72.4,29.70,NE,34,0.0,0.0,80,0.00,CLR,,0.00,WeatherDisplay:10.37,2013-05-17 03:01:00,
2013-05-16 22:06:00,79.0,72.7,29.70,NE,34,0.0,1.2,81,0.00,CLR,,0.00,WeatherDisplay:10.37,2013-05-17 03:06:00,
2013-05-16 22:11:00,78.7,72.4,29.70,East,81,0.4,1.2,81,0.00,CLR,,0.00,WeatherDisplay:10.37,2013-05-17 03:11:00,
2013-05-16 22:16:00,78.5,72.2,29.71,NNE,28,0.0,3.5,81,0.00,CLR,,0.00,WeatherDisplay:10.37,2013-05-17 03:16:00,
2013-05-16 22:21:00,78.4,72.4,29.71,NE,49,1.7,0.0,82,0.00,CLR,,0.00,WeatherDisplay:10.37,2013-05-17 03:21:00,
2013-05-16 22:26:00,78.2,72.3,29.71,ENE,71,0.0,0.0,82,0.00,CLR,,0.00,WeatherDisplay:10.37,2013-05-17 03:26:00,
2013-05-16 22:31:00,78.1,72.5,29.71,North,11,0.0,1.2,83,0.00,CLR,,0.00,WeatherDisplay:10.37,2013-05-17 03:31:00,
2013-05-16 22:36:00,78.0,72.4,29.72,NNW,330,0.0,1.2,83,0.00,CLR,,0.00,WeatherDisplay:10.37,2013-05-17 03:36:00,
2013-05-16 22:41:00,77.9,72.3,29.72,NE,34,0.5,3.5,83,0.00,CLR,,0.00,WeatherDisplay:10.37,2013-05-17 03:41:00,
2013-05-16 22:46:00,77.9,72.3,29.72,NW,321,0.0,0.0,83,0.00,CLR,,0.00,WeatherDisplay:10.37,2013-05-17 03:46:00,
2013-05-16 22:51:00,77.8,72.2,29.72,NNE,30,0.0,1.2,83,0.00,CLR,,0.00,WeatherDisplay:10.37,2013-05-17 03:51:00,
2013-05-16 22:56:00,77.7,72.5,29.72,North,9,0.2,0.0,84,0.00,CLR,,0.00,WeatherDisplay:10.37,2013-05-17 03:56:00,
2013-05-16 23:01:00,77.6,72.4,29.72,SW,217,0.5,2.3,84,0.00,CLR,,0.00,WeatherDisplay:10.37,2013-05-17 04:01:00,
2013-05-16 23:06:00,77.5,72.3,29.72,East,80,1.6,3.5,84,0.00,CLR,,0.00,WeatherDisplay:10.37,2013-05-17 04:06:00,
2013-05-16 23:11:00,77.4,72.2,29.72,NE,38,0.0,0.0,84,0.00,CLR,,0.00,WeatherDisplay:10.37,2013-05-17 04:11:00,
2013-05-16 23:16:00,77.3,72.1,29.72,ENE,57,1.1,3.5,84,0.00,CLR,,0.00,WeatherDisplay:10.37,2013-05-17 04:16:00,
2013-05-16 23:21:00,77.2,72.0,29.72,SSE,162,0.5,1.2,84,0.00,CLR,,0.00,WeatherDisplay:10.37,2013-05-17 04:21:00,
2013-05-16 23:26:00,77.2,72.0,29.72,NE,38,0.4,3.0,84,0.00,CLR,,0.00,WeatherDisplay:10.37,2013-05-17 04:26:00,
2013-05-16 23:31:00,77.1,72.2,29.72,NE,54,0.0,0.0,85,0.00,CLR,,0.00,WeatherDisplay:10.37,2013-05-17 04:31:00,
2013-05-16 23:36:00,77.1,72.2,29.72,SSW,208,0.3,0.0,85,0.00,CLR,,0.00,WeatherDisplay:10.37,2013-05-17 04:36:00,
2013-05-16 23:41:00,77.0,72.1,29.72,East,89,0.0,0.0,85,0.00,CLR,,0.00,WeatherDisplay:10.37,2013-05-17 04:41:00,
2013-05-16 23:46:00,76.9,72.0,29.72,NNW,346,0.0,0.0,85,0.00,CLR,,0.00,WeatherDisplay:10.37,2013-05-17 04:46:00,
2013-05-16 23:51:00,76.9,72.0,29.72,North,349,0.0,1.2,85,0.00,CLR,,0.00,WeatherDisplay:10.37,2013-05-17 04:51:00,
2013-05-16 23:56:00,76.9,72.0,29.72,North,349,0.0,0.0,85,0.00,CLR,,0.00,WeatherDisplay:10.37,2013-05-17 04:56:00,